createdAt,value
2018-07-03T00:00:20.723Z,49.60
2018-07-03T00:02:49.139Z,50.00
2018-07-03T00:05:17.577Z,50.20
2018-07-03T00:07:46.018Z,50.40
2018-07-03T00:10:14.479Z,50.90
2018-07-03T00:12:42.925Z,50.70
2018-07-03T00:15:11.382Z,50.40
2018-07-03T00:17:39.817Z,51.10
2018-07-03T00:22:36.818Z,50.70
2018-07-03T00:25:05.295Z,51.00
2018-07-03T00:27:33.683Z,51.30
2018-07-03T00:30:02.145Z,51.40
2018-07-03T00:32:30.590Z,51.20
2018-07-03T00:34:59.007Z,51.50
2018-07-03T00:37:27.443Z,50.80
2018-07-03T00:39:55.857Z,51.20
2018-07-03T00:42:24.358Z,51.40
2018-07-03T00:44:52.779Z,50.80
2018-07-03T00:47:21.176Z,51.20
2018-07-03T00:49:49.595Z,50.50
2018-07-03T00:52:18.017Z,50.90
2018-07-03T00:54:46.434Z,49.80
2018-07-03T00:57:14.827Z,50.60
2018-07-03T00:59:54.668Z,50.90
2018-07-03T01:02:23.173Z,50.60
2018-07-03T01:04:51.615Z,51.30
2018-07-03T01:09:48.118Z,51.30
2018-07-03T01:12:16.510Z,51.40
2018-07-03T01:14:50.381Z,51.70
2018-07-03T01:17:22.355Z,51.60
2018-07-03T01:19:50.810Z,51.70
2018-07-03T01:22:19.237Z,51.60
2018-07-03T01:24:47.675Z,52.40
2018-07-03T01:27:16.082Z,51.90
2018-07-03T01:29:44.479Z,51.80
2018-07-03T01:32:12.913Z,51.80
2018-07-03T01:34:41.311Z,51.80
2018-07-03T01:37:09.743Z,51.80
2018-07-03T01:39:38.135Z,51.80
2018-07-03T01:44:34.665Z,51.70
2018-07-03T01:47:03.105Z,51.60
2018-07-03T01:49:31.525Z,51.30
2018-07-03T01:51:59.943Z,52.70
2018-07-03T01:54:28.342Z,51.90
2018-07-03T01:56:56.811Z,52.30
2018-07-03T01:59:25.219Z,51.50
2018-07-03T02:01:53.655Z,51.10
2018-07-03T02:04:22.068Z,51.20
2018-07-03T02:06:50.530Z,51.20
2018-07-03T02:09:18.967Z,51.50
2018-07-03T02:11:47.411Z,51.40
2018-07-03T02:14:15.836Z,51.50
2018-07-03T02:16:44.293Z,51.70
2018-07-03T02:19:12.711Z,52.00
2018-07-03T02:21:41.139Z,52.00
2018-07-03T02:24:09.548Z,52.00
2018-07-03T02:26:38.004Z,52.00
2018-07-03T02:29:06.450Z,52.20
2018-07-03T02:31:34.879Z,52.00
2018-07-03T02:34:03.335Z,51.70
2018-07-03T02:36:31.795Z,52.10
2018-07-03T02:39:00.283Z,52.10
2018-07-03T02:41:28.691Z,52.50
2018-07-03T02:43:57.095Z,52.90
2018-07-03T02:46:25.545Z,52.70
2018-07-03T02:48:53.960Z,53.60
2018-07-03T02:51:22.391Z,53.60
2018-07-03T02:53:50.858Z,53.30
2018-07-03T02:56:19.279Z,53.50
2018-07-03T02:58:47.735Z,53.60
2018-07-03T03:01:16.188Z,53.20
2018-07-03T03:03:44.635Z,53.40
2018-07-03T03:06:13.092Z,54.30
2018-07-03T03:08:41.954Z,53.60
2018-07-03T03:11:10.357Z,53.40
2018-07-03T03:13:38.786Z,53.40
2018-07-03T03:16:07.183Z,53.40
2018-07-03T03:18:35.656Z,54.40
2018-07-03T03:23:32.214Z,53.80
2018-07-03T03:28:28.724Z,54.40
2018-07-03T03:30:57.144Z,55.50
2018-07-03T03:33:25.581Z,55.70
2018-07-03T03:35:53.995Z,55.60
2018-07-03T03:38:22.427Z,55.60
2018-07-03T03:40:50.834Z,56.00
2018-07-03T03:43:19.255Z,55.70
2018-07-03T03:48:15.796Z,55.90
2018-07-03T03:50:44.183Z,56.00
2018-07-03T03:55:40.730Z,54.70
2018-07-03T04:00:37.255Z,53.70
2018-07-03T04:03:05.729Z,53.30
2018-07-03T04:05:34.147Z,54.10
2018-07-03T04:12:58.774Z,54.00
2018-07-03T04:15:27.189Z,52.70
2018-07-03T04:17:55.595Z,52.20
2018-07-03T04:20:24.015Z,52.40
2018-07-03T04:22:52.425Z,51.90
2018-07-03T04:25:20.843Z,51.60
2018-07-03T04:27:49.240Z,51.50
2018-07-03T04:30:17.709Z,51.10
2018-07-03T04:32:46.134Z,50.60
2018-07-03T04:35:14.591Z,50.90
2018-07-03T04:40:11.147Z,50.70
2018-07-03T04:42:39.567Z,50.30
2018-07-03T04:45:08.004Z,49.30
2018-07-03T04:47:36.399Z,48.90
2018-07-03T04:50:05.083Z,49.20
2018-07-03T04:52:33.907Z,50.10
2018-07-03T04:55:02.351Z,49.30
2018-07-03T04:59:58.915Z,49.40
2018-07-03T05:02:27.352Z,48.40
2018-07-03T05:04:55.805Z,48.60
2018-07-03T05:07:24.241Z,48.50
2018-07-03T05:09:52.679Z,48.40
2018-07-03T05:12:21.105Z,49.30
2018-07-03T05:17:17.671Z,48.10
2018-07-03T05:19:46.104Z,49.00
2018-07-03T05:22:14.551Z,48.00
2018-07-03T05:24:42.997Z,48.40
2018-07-03T05:27:11.420Z,47.10
2018-07-03T05:29:39.857Z,47.10
2018-07-03T05:34:36.422Z,48.00
2018-07-03T05:39:32.968Z,46.60
2018-07-03T05:44:29.546Z,46.40
2018-07-03T05:46:57.985Z,46.00
2018-07-03T05:49:26.402Z,46.50
2018-07-03T05:51:54.846Z,47.20
2018-07-03T05:54:23.282Z,46.60
2018-07-03T05:56:52.019Z,45.70
2018-07-03T05:59:20.475Z,46.20
2018-07-03T06:01:49.113Z,45.50
2018-07-03T06:04:17.547Z,45.80
2018-07-03T06:06:45.987Z,45.90
2018-07-03T06:09:14.463Z,45.40
2018-07-03T06:11:42.934Z,45.20
2018-07-03T06:14:11.397Z,45.70
2018-07-03T06:16:39.881Z,45.40
2018-07-03T06:21:37.534Z,45.30
2018-07-03T06:24:06.030Z,45.60
2018-07-03T06:26:34.482Z,45.70
2018-07-03T06:29:03.050Z,45.70
2018-07-03T06:31:31.455Z,46.00
2018-07-03T06:33:59.883Z,46.50
2018-07-03T06:36:28.323Z,46.10
2018-07-03T06:38:56.752Z,46.40
2018-07-03T06:41:25.172Z,45.30
2018-07-03T06:43:53.648Z,45.70
2018-07-03T06:46:22.116Z,45.30
2018-07-03T06:48:50.595Z,45.00
2018-07-03T06:51:19.034Z,45.60
2018-07-03T06:56:15.621Z,45.40
2018-07-03T06:58:44.073Z,45.30
2018-07-03T07:01:12.492Z,45.50
2018-07-03T07:03:40.931Z,45.50
2018-07-03T07:06:09.348Z,45.00
2018-07-03T07:08:37.886Z,45.70
2018-07-03T07:11:06.258Z,45.70
2018-07-03T07:16:02.856Z,45.40
2018-07-03T07:18:31.295Z,45.40
2018-07-03T07:23:28.056Z,45.40
2018-07-03T07:28:24.755Z,45.40
2018-07-03T07:30:53.169Z,45.20
2018-07-03T07:33:21.642Z,44.80
2018-07-03T07:35:50.094Z,44.90
2018-07-03T07:38:18.527Z,44.90
2018-07-03T07:40:47.077Z,44.90
2018-07-03T07:43:15.499Z,45.30
2018-07-03T07:48:12.061Z,44.90
2018-07-03T07:50:40.476Z,45.90
2018-07-03T07:53:09.061Z,45.00
2018-07-03T07:55:37.572Z,44.70
2018-07-03T07:58:06.021Z,44.90
2018-07-03T08:00:34.467Z,44.90
2018-07-03T08:03:02.884Z,45.10
2018-07-03T08:05:31.348Z,45.30
2018-07-03T08:07:59.833Z,44.70
2018-07-03T08:10:28.268Z,44.00
2018-07-03T08:12:56.693Z,44.10
2018-07-03T08:15:25.700Z,44.50
2018-07-03T08:17:54.130Z,44.30
2018-07-03T08:20:22.579Z,44.30
2018-07-03T08:22:50.990Z,43.90
2018-07-03T08:25:19.459Z,44.30
2018-07-03T08:27:47.881Z,42.80
2018-07-03T08:30:16.332Z,42.90
2018-07-03T08:32:44.782Z,43.20
2018-07-03T08:35:13.582Z,42.00
2018-07-03T08:37:42.006Z,41.20
2018-07-03T08:42:38.556Z,41.00
2018-07-03T08:47:35.471Z,41.00
2018-07-03T08:50:04.099Z,41.00
2018-07-03T08:52:32.618Z,39.90
2018-07-03T08:55:01.141Z,38.30
2018-07-03T08:57:29.509Z,37.70
2018-07-03T08:59:57.942Z,38.40
2018-07-03T09:02:26.434Z,38.40
2018-07-03T09:04:54.862Z,38.40
2018-07-03T09:07:23.291Z,38.40
2018-07-03T09:09:51.783Z,37.60
2018-07-03T09:12:20.211Z,38.20
2018-07-03T09:14:48.747Z,38.90
2018-07-03T09:17:33.612Z,38.00
2018-07-03T09:20:02.260Z,36.30
2018-07-03T09:22:31.538Z,35.40
2018-07-03T09:24:59.977Z,34.30
2018-07-03T09:27:28.407Z,34.60
2018-07-03T09:29:56.855Z,35.00
2018-07-03T09:32:25.304Z,34.10
2018-07-03T09:34:53.709Z,33.20
2018-07-03T09:37:22.469Z,32.50
2018-07-03T09:39:50.891Z,33.40
2018-07-03T09:42:19.766Z,33.70
2018-07-03T09:44:48.219Z,33.50
2018-07-03T09:47:16.661Z,33.60
2018-07-03T09:49:45.493Z,33.70
2018-07-03T09:52:14.017Z,33.70
2018-07-03T09:54:42.521Z,33.50
2018-07-03T09:57:10.976Z,33.90
2018-07-03T09:59:39.424Z,33.70
2018-07-03T10:02:08.090Z,33.00
2018-07-03T10:07:04.787Z,32.20
2018-07-03T10:09:33.306Z,32.30
2018-07-03T10:14:29.877Z,31.80
2018-07-03T10:16:58.401Z,30.60
2018-07-03T10:19:26.856Z,30.40
2018-07-03T10:21:55.291Z,30.70
2018-07-03T10:24:23.794Z,30.60
2018-07-03T10:26:52.319Z,30.70
2018-07-03T10:29:20.753Z,32.40
2018-07-03T10:31:49.231Z,32.60
2018-07-03T10:34:17.644Z,33.10
2018-07-03T10:36:46.083Z,33.20
2018-07-03T10:39:14.545Z,33.00
2018-07-03T10:41:43.025Z,32.90
2018-07-03T10:44:11.451Z,32.50
2018-07-03T10:46:39.883Z,32.20
2018-07-03T10:49:08.339Z,33.10
2018-07-03T10:51:36.865Z,33.40
2018-07-03T10:54:05.316Z,33.20
2018-07-03T10:56:33.844Z,33.40
2018-07-03T10:59:02.317Z,32.90
2018-07-03T11:01:30.816Z,33.10
2018-07-03T11:03:59.290Z,32.50
2018-07-03T11:06:27.769Z,31.50
2018-07-03T11:08:56.250Z,31.50
2018-07-03T11:11:24.734Z,31.40
2018-07-03T11:13:53.235Z,31.60
2018-07-03T11:16:21.614Z,31.10
2018-07-03T11:18:50.043Z,31.10
2018-07-03T11:21:18.471Z,31.00
2018-07-03T11:23:46.917Z,30.90
2018-07-03T11:26:15.372Z,31.20
2018-07-03T11:28:43.806Z,31.10
2018-07-03T11:31:12.214Z,30.80
2018-07-03T11:33:40.632Z,31.20
2018-07-03T11:36:09.060Z,31.30
2018-07-03T11:38:37.496Z,31.10
2018-07-03T11:41:05.956Z,31.30
2018-07-03T11:43:34.396Z,32.20
2018-07-03T11:46:02.943Z,31.50
2018-07-03T11:48:31.370Z,31.20
2018-07-03T11:53:27.973Z,32.00
2018-07-03T11:55:56.371Z,32.10
2018-07-03T11:58:24.880Z,32.40
2018-07-03T12:05:49.609Z,32.00
2018-07-03T12:10:46.153Z,33.20
2018-07-03T12:13:14.578Z,33.40
2018-07-03T12:15:42.994Z,33.90
2018-07-03T12:19:15.538Z,34.70
2018-07-03T12:21:43.964Z,35.10
2018-07-03T12:24:12.551Z,35.10
2018-07-03T12:26:40.990Z,35.10
2018-07-03T12:29:09.511Z,34.80
2018-07-03T12:31:37.923Z,35.70
2018-07-03T12:34:06.381Z,35.80
2018-07-03T12:36:34.813Z,35.40
2018-07-03T12:39:04.602Z,36.00
2018-07-03T12:41:33.004Z,37.20
2018-07-03T12:44:01.433Z,36.80
2018-07-03T12:46:29.846Z,38.00
2018-07-03T12:48:58.281Z,36.80
2018-07-03T12:51:26.688Z,38.20
2018-07-03T12:56:23.261Z,40.10
2018-07-03T12:58:52.241Z,39.00
2018-07-03T13:03:48.820Z,38.90
2018-07-03T13:06:17.258Z,39.20
2018-07-03T13:08:45.788Z,38.60
2018-07-03T13:11:14.179Z,38.90
2018-07-03T13:13:42.692Z,38.40
2018-07-03T13:16:11.157Z,39.20
2018-07-03T13:18:39.594Z,39.50
2018-07-03T13:21:08.042Z,39.70
2018-07-03T13:23:36.459Z,39.60
2018-07-03T13:26:05.434Z,39.40
2018-07-03T13:28:33.879Z,39.40
2018-07-03T13:31:02.377Z,39.00
2018-07-03T13:33:30.786Z,39.60
2018-07-03T13:35:59.203Z,40.20
2018-07-03T13:38:27.607Z,40.00
2018-07-03T13:40:56.035Z,40.80
2018-07-03T13:43:24.447Z,40.10
2018-07-03T13:45:52.895Z,40.20
2018-07-03T13:48:21.393Z,40.10
2018-07-03T13:50:49.758Z,40.10
2018-07-03T13:53:18.178Z,39.90
2018-07-03T13:58:14.674Z,40.00
2018-07-03T14:03:11.232Z,40.00
2018-07-03T14:05:39.671Z,40.00
2018-07-03T14:08:08.103Z,39.90
2018-07-03T14:10:36.575Z,40.00
2018-07-03T14:13:05.021Z,40.00
2018-07-03T14:15:33.493Z,39.80
2018-07-03T14:18:01.943Z,39.90
2018-07-03T14:20:30.363Z,40.40
2018-07-03T14:22:58.790Z,39.80
2018-07-03T14:25:27.210Z,40.40
2018-07-03T14:27:55.603Z,39.90
2018-07-03T14:30:24.023Z,39.90
2018-07-03T14:32:52.439Z,40.60
2018-07-03T14:35:20.859Z,41.00
2018-07-03T14:37:49.286Z,40.70
2018-07-03T14:40:17.727Z,40.90
2018-07-03T14:45:14.246Z,40.50
2018-07-03T14:47:42.680Z,40.00
2018-07-03T14:50:11.319Z,40.00
2018-07-03T14:52:39.795Z,40.00
2018-07-03T14:55:08.242Z,40.00
2018-07-03T14:57:36.701Z,40.20
2018-07-03T15:00:06.066Z,39.90
2018-07-03T15:02:34.517Z,40.50
2018-07-03T15:05:03.025Z,40.40
2018-07-03T15:07:31.474Z,40.10
2018-07-03T15:09:59.883Z,39.90
2018-07-03T15:12:28.339Z,39.10
2018-07-03T15:14:56.828Z,39.30
2018-07-03T15:17:25.330Z,39.10
2018-07-03T15:19:54.957Z,39.00
2018-07-03T15:22:23.466Z,39.00
2018-07-03T15:24:52.128Z,37.90
2018-07-03T15:27:20.701Z,39.30
2018-07-03T15:29:49.143Z,37.60
2018-07-03T15:32:17.620Z,37.80
2018-07-03T15:34:46.065Z,38.10
2018-07-03T15:39:42.649Z,37.80
2018-07-03T15:42:11.082Z,37.90
2018-07-03T15:44:50.728Z,36.70
2018-07-03T15:47:19.158Z,36.50
2018-07-03T15:49:47.606Z,36.10
2018-07-03T15:54:44.440Z,35.80
2018-07-03T15:57:12.875Z,36.00
2018-07-03T15:59:41.274Z,36.00
2018-07-03T16:02:09.720Z,35.70
2018-07-03T16:05:52.976Z,35.60
2018-07-03T16:08:32.630Z,35.00
2018-07-03T16:11:01.023Z,34.10
2018-07-03T16:13:29.497Z,34.50
2018-07-03T16:15:57.909Z,34.40
2018-07-03T16:18:27.637Z,34.90
2018-07-03T16:20:56.048Z,34.00
2018-07-03T16:23:24.469Z,33.30
2018-07-03T16:25:52.890Z,33.40
2018-07-03T16:28:21.302Z,34.10
2018-07-03T16:30:49.803Z,34.40
2018-07-03T16:33:18.288Z,34.70
2018-07-03T16:35:46.733Z,34.80
2018-07-03T16:38:15.167Z,34.80
2018-07-03T16:40:43.581Z,35.20
2018-07-03T16:43:12.012Z,34.50
2018-07-03T16:45:40.412Z,34.70
2018-07-03T16:48:08.853Z,34.20
2018-07-03T16:50:37.261Z,33.60
2018-07-03T16:53:05.715Z,33.80
2018-07-03T16:55:34.128Z,33.80
2018-07-03T16:58:02.574Z,33.80
2018-07-03T17:00:30.998Z,34.10
2018-07-03T17:02:59.413Z,34.40
2018-07-03T17:05:27.846Z,34.00
2018-07-03T17:07:56.278Z,34.80
2018-07-03T17:10:24.715Z,33.90
2018-07-03T17:12:53.116Z,33.90
2018-07-03T17:15:21.584Z,34.30
2018-07-03T17:17:50.103Z,34.20
2018-07-03T17:20:18.567Z,33.70
2018-07-03T17:22:47.067Z,33.90
2018-07-03T17:25:15.514Z,34.50
2018-07-03T17:27:43.908Z,35.20
2018-07-03T17:30:12.409Z,34.60
2018-07-03T17:32:40.836Z,35.40
2018-07-03T17:35:09.251Z,34.80
2018-07-03T17:37:37.638Z,35.90
2018-07-03T17:40:17.363Z,35.90
2018-07-03T17:45:49.777Z,36.00
2018-07-03T17:48:18.195Z,35.70
2018-07-03T17:50:46.641Z,36.00
2018-07-03T17:53:15.090Z,35.80
2018-07-03T17:55:43.519Z,35.70
2018-07-03T17:58:12.069Z,36.50
2018-07-03T18:00:40.429Z,36.80
2018-07-03T18:03:08.868Z,37.10
2018-07-03T18:05:37.333Z,37.60
2018-07-03T18:08:05.835Z,37.90
2018-07-03T18:10:34.278Z,38.40
2018-07-03T18:13:02.683Z,38.20
2018-07-03T18:15:31.118Z,38.00
2018-07-03T18:20:27.724Z,38.10
2018-07-03T18:22:56.162Z,38.40
2018-07-03T18:25:24.615Z,38.30
2018-07-03T18:27:53.213Z,39.00
2018-07-03T18:30:21.490Z,39.50
2018-07-03T18:32:49.903Z,39.60
2018-07-03T18:35:18.323Z,39.90
2018-07-03T18:37:46.738Z,40.00
2018-07-03T18:42:43.313Z,41.20
2018-07-03T18:45:11.758Z,41.50
2018-07-03T18:47:40.197Z,42.30
2018-07-03T18:50:08.660Z,41.90
2018-07-03T18:52:37.152Z,41.80
2018-07-03T18:55:05.697Z,41.90
2018-07-03T19:00:02.220Z,42.30
2018-07-03T19:02:30.676Z,42.50
2018-07-03T19:04:59.086Z,43.00
2018-07-03T19:07:27.508Z,43.50
2018-07-03T19:09:55.914Z,44.00
2018-07-03T19:12:24.384Z,44.30
2018-07-03T19:14:52.810Z,44.60
2018-07-03T19:17:21.257Z,44.80
2018-07-03T19:19:49.675Z,45.00
2018-07-03T19:22:18.111Z,45.20
2018-07-03T19:24:46.535Z,45.40
2018-07-03T19:27:14.991Z,45.60
2018-07-03T19:29:43.403Z,46.60
2018-07-03T19:32:11.905Z,46.30
2018-07-03T19:39:36.898Z,46.70
2018-07-03T19:42:05.392Z,46.70
2018-07-03T19:44:33.770Z,47.00
2018-07-03T19:47:02.219Z,46.90
2018-07-03T19:49:30.641Z,47.30
2018-07-03T19:51:59.105Z,47.90
2018-07-03T19:54:27.553Z,48.20
2018-07-03T19:56:56.036Z,48.30
2018-07-03T19:59:24.446Z,48.30
2018-07-03T20:01:52.954Z,48.40
2018-07-03T20:04:21.625Z,48.70
2018-07-03T20:06:50.076Z,49.40
2018-07-03T20:09:18.485Z,49.20
2018-07-03T20:11:46.927Z,49.30
2018-07-03T20:14:15.357Z,49.50
2018-07-03T20:16:43.795Z,49.60
2018-07-03T20:19:14.479Z,50.00
2018-07-03T20:21:44.714Z,50.30
2018-07-03T20:24:13.575Z,50.40
2018-07-03T20:26:42.279Z,50.50
2018-07-03T20:29:11.018Z,50.80
2018-07-03T20:31:39.502Z,51.00
2018-07-03T20:34:07.911Z,51.10
2018-07-03T20:36:36.335Z,51.80
2018-07-03T20:39:07.327Z,51.60
2018-07-03T20:41:35.874Z,52.00
2018-07-03T20:44:04.457Z,52.30
2018-07-03T20:46:32.889Z,52.80
2018-07-03T20:49:01.390Z,53.20
2018-07-03T20:51:29.810Z,54.30
2018-07-03T20:53:58.514Z,54.60
2018-07-03T20:56:26.934Z,54.00
2018-07-03T21:01:23.456Z,53.90
2018-07-03T21:03:51.942Z,53.80
2018-07-03T21:06:20.376Z,53.80
2018-07-03T21:08:48.763Z,53.80
2018-07-03T21:11:18.057Z,53.70
2018-07-03T21:13:46.530Z,53.80
2018-07-03T21:16:14.963Z,53.70
2018-07-03T21:18:43.413Z,53.80
2018-07-03T21:21:11.867Z,53.90
2018-07-03T21:23:40.395Z,54.00
2018-07-03T21:26:08.815Z,54.00
2018-07-03T21:28:37.254Z,55.20
2018-07-03T21:31:05.754Z,54.30
2018-07-03T21:33:34.224Z,54.10
2018-07-03T21:36:02.632Z,54.00
2018-07-03T21:40:59.297Z,54.30
2018-07-03T21:45:55.867Z,55.20
2018-07-03T21:48:24.315Z,55.20
2018-07-03T21:50:52.724Z,54.50
2018-07-03T21:53:21.215Z,54.70
2018-07-03T21:55:49.643Z,54.50
2018-07-03T21:58:18.082Z,53.90
2018-07-03T22:00:46.495Z,54.10
2018-07-03T22:03:14.931Z,55.30
2018-07-03T22:05:43.363Z,56.70
2018-07-03T22:08:11.799Z,58.10
2018-07-03T22:10:40.226Z,58.60
2018-07-03T22:13:08.691Z,58.70
2018-07-03T22:15:37.099Z,58.80
2018-07-03T22:18:05.751Z,58.80
2018-07-03T22:20:34.229Z,59.30
2018-07-03T22:23:02.664Z,59.30
2018-07-03T22:27:59.284Z,60.30
2018-07-03T22:30:27.726Z,60.40
2018-07-03T22:32:56.127Z,60.50
2018-07-03T22:35:24.559Z,60.50
2018-07-03T22:37:53.051Z,60.50
2018-07-03T22:40:21.491Z,59.90
2018-07-03T22:42:49.902Z,59.60
2018-07-03T22:47:46.434Z,59.00
2018-07-03T22:50:15.202Z,58.60
2018-07-03T22:52:43.653Z,58.90
2018-07-03T22:55:12.079Z,59.00
2018-07-03T22:57:40.479Z,58.80
2018-07-03T23:02:37.027Z,59.00
2018-07-03T23:05:05.486Z,59.10
2018-07-03T23:07:33.911Z,59.30
2018-07-03T23:10:02.335Z,59.30
2018-07-03T23:12:30.787Z,59.30
2018-07-03T23:14:59.218Z,59.30
2018-07-03T23:17:27.632Z,59.10
2018-07-03T23:19:56.099Z,59.30
2018-07-03T23:22:24.515Z,59.30
2018-07-03T23:24:52.961Z,59.00
2018-07-03T23:27:21.401Z,59.00
2018-07-03T23:29:49.857Z,59.20
2018-07-03T23:32:18.294Z,58.90
2018-07-03T23:34:46.710Z,59.40
2018-07-03T23:37:15.142Z,60.10
2018-07-03T23:39:43.581Z,60.10
2018-07-03T23:42:12.033Z,60.50
2018-07-03T23:44:40.456Z,60.70
2018-07-03T23:47:20.149Z,60.70
2018-07-03T23:52:33.509Z,60.80
2018-07-03T23:55:13.329Z,60.70
2018-07-03T23:57:52.979Z,60.70
